Letart, West Virginia
Current Conditions -  °F | °C
As of 1:55 PM on Monday 20 Oct 2014 (Local Time) from K3I2 Reporting Station
Broken Clouds Broken Clouds  
Wind Chill: 61°   Ceiling: 6000
Heat Index: 61°   Visibility: 10mi
Dew Point: 46°   Wind: 10mph
Humidity: 59%   Direction: 230°SW
Pressure: 29.97"   Gusts: NA
Location:  38.89°N, 81.93°W
Report Text: K3I2 201755Z AUTO 23009KT 190V250 10SM BKN060 BKN100 16/08 A2997 RMK AO2
Loading
Personal Weather Stations






























Interactive Weather Map New forecast layout! Learn more

10-Day Weather Forecast

Advertisements
Track Severe Weather on mobile